sensor_id;sensor_type;location;lat;lon;timestamp;temperature;humidity
46159;DHT22;31888;44.512;26.104;2022-09-09T00:03:40;22.20;88.80
46159;DHT22;31888;44.512;26.104;2022-09-09T00:05:55;22.20;88.50
46159;DHT22;31888;44.512;26.104;2022-09-09T00:08:03;22.30;88.20
46159;DHT22;31888;44.512;26.104;2022-09-09T00:10:16;22.20;88.70
46159;DHT22;31888;44.512;26.104;2022-09-09T00:12:33;22.30;88.70
46159;DHT22;31888;44.512;26.104;2022-09-09T00:14:44;22.50;88.40
46159;DHT22;31888;44.512;26.104;2022-09-09T00:16:53;22.80;87.50
46159;DHT22;31888;44.512;26.104;2022-09-09T00:19:02;23.10;86.50
46159;DHT22;31888;44.512;26.104;2022-09-09T00:21:13;23.30;85.80
46159;DHT22;31888;44.512;26.104;2022-09-09T00:23:24;23.50;85.30
46159;DHT22;31888;44.512;26.104;2022-09-09T00:25:33;23.70;84.90
46159;DHT22;31888;44.512;26.104;2022-09-09T00:27:45;23.70;84.60
46159;DHT22;31888;44.512;26.104;2022-09-09T00:29:54;23.60;84.50
46159;DHT22;31888;44.512;26.104;2022-09-09T00:32:05;22.60;87.30
46159;DHT22;31888;44.512;26.104;2022-09-09T00:34:15;22.30;88.90
46159;DHT22;31888;44.512;26.104;2022-09-09T00:36:22;22.20;88.60
46159;DHT22;31888;44.512;26.104;2022-09-09T00:38:32;22.00;89.40
46159;DHT22;31888;44.512;26.104;2022-09-09T00:40:44;22.10;89.90
46159;DHT22;31888;44.512;26.104;2022-09-09T00:43:00;22.40;88.90
46159;DHT22;31888;44.512;26.104;2022-09-09T00:45:19;22.80;87.80
46159;DHT22;31888;44.512;26.104;2022-09-09T00:47:39;23.10;86.80
46159;DHT22;31888;44.512;26.104;2022-09-09T00:49:52;23.30;86.10
46159;DHT22;31888;44.512;26.104;2022-09-09T00:52:20;23.40;85.60
46159;DHT22;31888;44.512;26.104;2022-09-09T00:54:32;23.10;86.00
46159;DHT22;31888;44.512;26.104;2022-09-09T00:56:42;22.70;87.50
46159;DHT22;31888;44.512;26.104;2022-09-09T00:58:58;22.10;89.10
46159;DHT22;31888;44.512;26.104;2022-09-09T01:01:07;21.50;90.30
46159;DHT22;31888;44.512;26.104;2022-09-09T01:03:29;21.00;91.30
46159;DHT22;31888;44.512;26.104;2022-09-09T01:05:41;20.60;92.20
46159;DHT22;31888;44.512;26.104;2022-09-09T01:07:49;20.20;93.10
46159;DHT22;31888;44.512;26.104;2022-09-09T01:10:01;19.70;94.00
46159;DHT22;31888;44.512;26.104;2022-09-09T01:12:12;19.50;94.70
46159;DHT22;31888;44.512;26.104;2022-09-09T01:14:32;19.30;95.60
46159;DHT22;31888;44.512;26.104;2022-09-09T01:16:42;19.40;95.90
46159;DHT22;31888;44.512;26.104;2022-09-09T01:18:51;19.90;94.90
46159;DHT22;31888;44.512;26.104;2022-09-09T01:20:59;20.50;93.90
46159;DHT22;31888;44.512;26.104;2022-09-09T01:23:18;20.90;93.10
46159;DHT22;31888;44.512;26.104;2022-09-09T01:26:15;21.50;91.90
46159;DHT22;31888;44.512;26.104;2022-09-09T01:28:24;21.00;92.20
46159;DHT22;31888;44.512;26.104;2022-09-09T01:30:39;20.40;93.30
46159;DHT22;31888;44.512;26.104;2022-09-09T01:32:50;20.10;93.90
46159;DHT22;31888;44.512;26.104;2022-09-09T01:34:54;20.10;94.10
46159;DHT22;31888;44.512;26.104;2022-09-09T01:37:02;19.90;94.40
46159;DHT22;31888;44.512;26.104;2022-09-09T01:39:07;19.70;94.90
46159;DHT22;31888;44.512;26.104;2022-09-09T01:41:13;19.80;95.00
46159;DHT22;31888;44.512;26.104;2022-09-09T01:43:31;20.00;94.50
46159;DHT22;31888;44.512;26.104;2022-09-09T01:45:36;20.10;94.40
46159;DHT22;31888;44.512;26.104;2022-09-09T01:47:42;19.90;94.60
46159;DHT22;31888;44.512;26.104;2022-09-09T01:50:06;19.60;95.30
46159;DHT22;31888;44.512;26.104;2022-09-09T01:52:12;19.30;95.90
46159;DHT22;31888;44.512;26.104;2022-09-09T01:54:16;19.20;96.20
46159;DHT22;31888;44.512;26.104;2022-09-09T01:56:32;19.30;96.20
46159;DHT22;31888;44.512;26.104;2022-09-09T01:58:53;19.30;96.40
46159;DHT22;31888;44.512;26.104;2022-09-09T02:01:04;19.40;96.90
46159;DHT22;31888;44.512;26.104;2022-09-09T02:03:17;19.90;95.70
46159;DHT22;31888;44.512;26.104;2022-09-09T02:05:35;20.50;94.70
46159;DHT22;31888;44.512;26.104;2022-09-09T02:07:47;21.10;93.70
46159;DHT22;31888;44.512;26.104;2022-09-09T02:10:11;21.60;92.60
46159;DHT22;31888;44.512;26.104;2022-09-09T02:12:25;22.10;91.70
46159;DHT22;31888;44.512;26.104;2022-09-09T02:14:36;22.30;90.80
46159;DHT22;31888;44.512;26.104;2022-09-09T02:16:44;21.80;91.50
46159;DHT22;31888;44.512;26.104;2022-09-09T02:18:55;21.20;92.30
46159;DHT22;31888;44.512;26.104;2022-09-09T02:21:12;20.40;94.00
46159;DHT22;31888;44.512;26.104;2022-09-09T02:23:17;19.80;95.10
46159;DHT22;31888;44.512;26.104;2022-09-09T02:25:28;19.70;95.80
46159;DHT22;31888;44.512;26.104;2022-09-09T02:27:45;19.60;96.00
46159;DHT22;31888;44.512;26.104;2022-09-09T02:29:51;19.90;95.70
46159;DHT22;31888;44.512;26.104;2022-09-09T02:32:12;20.60;94.60
46159;DHT22;31888;44.512;26.104;2022-09-09T02:34:19;21.20;93.40
46159;DHT22;31888;44.512;26.104;2022-09-09T02:36:26;21.60;92.60
46159;DHT22;31888;44.512;26.104;2022-09-09T02:38:36;21.80;91.70
46159;DHT22;31888;44.512;26.104;2022-09-09T02:40:48;21.60;92.50
46159;DHT22;31888;44.512;26.104;2022-09-09T02:42:54;21.70;92.20
46159;DHT22;31888;44.512;26.104;2022-09-09T02:44:59;21.90;91.90
46159;DHT22;31888;44.512;26.104;2022-09-09T02:47:18;22.30;91.40
46159;DHT22;31888;44.512;26.104;2022-09-09T02:49:28;22.60;90.80
46159;DHT22;31888;44.512;26.104;2022-09-09T02:51:44;22.90;90.40
46159;DHT22;31888;44.512;26.104;2022-09-09T02:53:55;22.70;90.60
46159;DHT22;31888;44.512;26.104;2022-09-09T02:56:04;22.80;90.30
46159;DHT22;31888;44.512;26.104;2022-09-09T02:58:15;23.00;90.10
46159;DHT22;31888;44.512;26.104;2022-09-09T03:00:29;23.10;89.80
46159;DHT22;31888;44.512;26.104;2022-09-09T03:02:36;22.90;88.70
46159;DHT22;31888;44.512;26.104;2022-09-09T03:04:43;22.40;90.20
46159;DHT22;31888;44.512;26.104;2022-09-09T03:06:49;22.10;90.70
46159;DHT22;31888;44.512;26.104;2022-09-09T03:08:55;21.70;91.80
46159;DHT22;31888;44.512;26.104;2022-09-09T03:11:02;21.50;91.70
46159;DHT22;31888;44.512;26.104;2022-09-09T03:13:09;21.10;92.40
46159;DHT22;31888;44.512;26.104;2022-09-09T03:15:17;20.80;93.00
46159;DHT22;31888;44.512;26.104;2022-09-09T03:17:22;20.30;93.90
46159;DHT22;31888;44.512;26.104;2022-09-09T03:19:30;20.10;94.60
46159;DHT22;31888;44.512;26.104;2022-09-09T03:21:35;20.50;94.20
46159;DHT22;31888;44.512;26.104;2022-09-09T03:23:39;20.90;93.70
46159;DHT22;31888;44.512;26.104;2022-09-09T03:25:47;21.30;92.10
46159;DHT22;31888;44.512;26.104;2022-09-09T03:27:56;21.00;93.00
46159;DHT22;31888;44.512;26.104;2022-09-09T03:30:01;20.70;93.10
46159;DHT22;31888;44.512;26.104;2022-09-09T03:32:08;20.50;93.40
46159;DHT22;31888;44.512;26.104;2022-09-09T03:34:14;20.30;94.00
46159;DHT22;31888;44.512;26.104;2022-09-09T03:36:18;20.00;94.20
46159;DHT22;31888;44.512;26.104;2022-09-09T03:38:23;20.00;93.90
46159;DHT22;31888;44.512;26.104;2022-09-09T03:40:27;19.90;94.40
46159;DHT22;31888;44.512;26.104;2022-09-09T03:42:31;19.60;95.20
46159;DHT22;31888;44.512;26.104;2022-09-09T03:44:36;19.30;95.90
46159;DHT22;31888;44.512;26.104;2022-09-09T03:46:41;19.00;96.40
46159;DHT22;31888;44.512;26.104;2022-09-09T03:48:47;18.80;97.10
46159;DHT22;31888;44.512;26.104;2022-09-09T03:50:52;18.50;97.70
46159;DHT22;31888;44.512;26.104;2022-09-09T03:52:56;18.30;98.40
46159;DHT22;31888;44.512;26.104;2022-09-09T03:55:01;18.00;99.20
46159;DHT22;31888;44.512;26.104;2022-09-09T03:57:05;17.90;99.80
46159;DHT22;31888;44.512;26.104;2022-09-09T03:59:10;17.90;99.90
46159;DHT22;31888;44.512;26.104;2022-09-09T04:01:15;18.00;99.90
46159;DHT22;31888;44.512;26.104;2022-09-09T04:03:22;18.00;99.90
46159;DHT22;31888;44.512;26.104;2022-09-09T04:05:32;18.20;99.90
46159;DHT22;31888;44.512;26.104;2022-09-09T04:07:37;18.40;99.70
46159;DHT22;31888;44.512;26.104;2022-09-09T04:09:41;18.80;99.00
46159;DHT22;31888;44.512;26.104;2022-09-09T04:11:46;19.10;98.40
46159;DHT22;31888;44.512;26.104;2022-09-09T04:13:50;19.30;97.90
46159;DHT22;31888;44.512;26.104;2022-09-09T04:15:56;19.50;97.30
46159;DHT22;31888;44.512;26.104;2022-09-09T04:18:01;19.70;96.90
46159;DHT22;31888;44.512;26.104;2022-09-09T04:20:06;19.60;97.00
46159;DHT22;31888;44.512;26.104;2022-09-09T04:22:15;19.50;97.30
46159;DHT22;31888;44.512;26.104;2022-09-09T04:24:20;19.30;97.80
46159;DHT22;31888;44.512;26.104;2022-09-09T04:26:25;19.20;98.30
46159;DHT22;31888;44.512;26.104;2022-09-09T04:28:31;19.40;97.80
46159;DHT22;31888;44.512;26.104;2022-09-09T04:30:36;19.40;97.50
46159;DHT22;31888;44.512;26.104;2022-09-09T04:32:42;19.50;97.60
46159;DHT22;31888;44.512;26.104;2022-09-09T04:34:46;19.50;97.60
46159;DHT22;31888;44.512;26.104;2022-09-09T04:36:51;19.70;97.30
46159;DHT22;31888;44.512;26.104;2022-09-09T04:38:57;20.20;96.50
46159;DHT22;31888;44.512;26.104;2022-09-09T04:41:02;20.40;95.90
46159;DHT22;31888;44.512;26.104;2022-09-09T04:43:08;20.30;96.00
46159;DHT22;31888;44.512;26.104;2022-09-09T04:45:17;20.40;95.70
46159;DHT22;31888;44.512;26.104;2022-09-09T04:47:22;20.40;95.80
46159;DHT22;31888;44.512;26.104;2022-09-09T04:49:26;20.40;95.60
46159;DHT22;31888;44.512;26.104;2022-09-09T04:51:31;20.80;95.10
46159;DHT22;31888;44.512;26.104;2022-09-09T04:53:35;21.00;95.00
46159;DHT22;31888;44.512;26.104;2022-09-09T04:55:41;21.00;94.70
46159;DHT22;31888;44.512;26.104;2022-09-09T04:57:45;21.10;94.40
46159;DHT22;31888;44.512;26.104;2022-09-09T04:59:51;21.20;94.30
46159;DHT22;31888;44.512;26.104;2022-09-09T05:01:55;21.30;94.20
46159;DHT22;31888;44.512;26.104;2022-09-09T05:04:12;21.60;93.90
46159;DHT22;31888;44.512;26.104;2022-09-09T05:06:20;21.80;93.40
46159;DHT22;31888;44.512;26.104;2022-09-09T05:08:29;21.90;93.30
46159;DHT22;31888;44.512;26.104;2022-09-09T05:10:34;22.30;92.50
46159;DHT22;31888;44.512;26.104;2022-09-09T05:12:42;22.60;92.20
46159;DHT22;31888;44.512;26.104;2022-09-09T05:14:46;23.00;91.80
46159;DHT22;31888;44.512;26.104;2022-09-09T05:16:50;23.10;90.90
46159;DHT22;31888;44.512;26.104;2022-09-09T05:18:56;23.30;90.70
46159;DHT22;31888;44.512;26.104;2022-09-09T05:21:10;23.40;90.40
46159;DHT22;31888;44.512;26.104;2022-09-09T05:23:15;23.70;90.00
46159;DHT22;31888;44.512;26.104;2022-09-09T05:25:19;24.20;89.70
46159;DHT22;31888;44.512;26.104;2022-09-09T05:27:24;24.50;88.20
46159;DHT22;31888;44.512;26.104;2022-09-09T05:29:31;24.80;88.00
46159;DHT22;31888;44.512;26.104;2022-09-09T05:31:38;24.60;85.90
46159;DHT22;31888;44.512;26.104;2022-09-09T05:33:48;24.40;86.90
46159;DHT22;31888;44.512;26.104;2022-09-09T05:35:57;24.70;86.70
46159;DHT22;31888;44.512;26.104;2022-09-09T05:38:03;24.80;85.70
46159;DHT22;31888;44.512;26.104;2022-09-09T05:40:08;24.80;86.30
46159;DHT22;31888;44.512;26.104;2022-09-09T05:42:15;25.10;85.80
46159;DHT22;31888;44.512;26.104;2022-09-09T05:44:19;25.30;84.20
46159;DHT22;31888;44.512;26.104;2022-09-09T05:46:27;25.50;84.50
46159;DHT22;31888;44.512;26.104;2022-09-09T05:48:33;25.70;83.00
46159;DHT22;31888;44.512;26.104;2022-09-09T05:50:37;25.60;85.00
46159;DHT22;31888;44.512;26.104;2022-09-09T05:52:42;26.00;83.80
46159;DHT22;31888;44.512;26.104;2022-09-09T05:54:47;26.00;82.80
46159;DHT22;31888;44.512;26.104;2022-09-09T05:56:52;25.90;81.70
46159;DHT22;31888;44.512;26.104;2022-09-09T05:58:56;25.60;81.30
46159;DHT22;31888;44.512;26.104;2022-09-09T06:01:05;25.70;81.90
46159;DHT22;31888;44.512;26.104;2022-09-09T06:03:12;25.90;80.20
46159;DHT22;31888;44.512;26.104;2022-09-09T06:05:17;26.10;79.40
46159;DHT22;31888;44.512;26.104;2022-09-09T06:07:21;26.30;79.30
46159;DHT22;31888;44.512;26.104;2022-09-09T06:09:25;26.60;78.60
46159;DHT22;31888;44.512;26.104;2022-09-09T06:11:31;26.70;77.80
46159;DHT22;31888;44.512;26.104;2022-09-09T06:13:37;26.50;77.50
46159;DHT22;31888;44.512;26.104;2022-09-09T06:15:49;26.40;77.40
46159;DHT22;31888;44.512;26.104;2022-09-09T06:17:54;26.80;77.20
46159;DHT22;31888;44.512;26.104;2022-09-09T06:20:01;27.40;75.80
46159;DHT22;31888;44.512;26.104;2022-09-09T06:22:06;27.70;74.50
46159;DHT22;31888;44.512;26.104;2022-09-09T06:24:15;28.10;73.10
46159;DHT22;31888;44.512;26.104;2022-09-09T06:26:23;28.50;72.10
46159;DHT22;31888;44.512;26.104;2022-09-09T06:28:28;28.80;72.00
46159;DHT22;31888;44.512;26.104;2022-09-09T06:30:32;29.10;70.60
46159;DHT22;31888;44.512;26.104;2022-09-09T06:32:37;29.30;70.00
46159;DHT22;31888;44.512;26.104;2022-09-09T06:34:42;29.60;69.80
46159;DHT22;31888;44.512;26.104;2022-09-09T06:36:49;29.80;68.70
46159;DHT22;31888;44.512;26.104;2022-09-09T06:38:55;29.90;68.00
46159;DHT22;31888;44.512;26.104;2022-09-09T06:40:59;29.70;68.60
46159;DHT22;31888;44.512;26.104;2022-09-09T06:43:05;29.40;68.80
46159;DHT22;31888;44.512;26.104;2022-09-09T06:45:14;29.60;67.90
46159;DHT22;31888;44.512;26.104;2022-09-09T06:47:25;29.40;68.20
46159;DHT22;31888;44.512;26.104;2022-09-09T06:49:31;29.40;68.00
46159;DHT22;31888;44.512;26.104;2022-09-09T06:51:38;29.50;68.20
46159;DHT22;31888;44.512;26.104;2022-09-09T06:53:50;29.60;68.30
46159;DHT22;31888;44.512;26.104;2022-09-09T06:55:57;29.80;67.20
46159;DHT22;31888;44.512;26.104;2022-09-09T06:58:01;30.10;66.80
46159;DHT22;31888;44.512;26.104;2022-09-09T07:00:07;30.50;66.00
46159;DHT22;31888;44.512;26.104;2022-09-09T07:02:12;30.70;65.80
46159;DHT22;31888;44.512;26.104;2022-09-09T07:04:17;30.80;66.30
46159;DHT22;31888;44.512;26.104;2022-09-09T07:06:23;30.90;66.20
46159;DHT22;31888;44.512;26.104;2022-09-09T07:08:28;31.00;65.70
46159;DHT22;31888;44.512;26.104;2022-09-09T07:10:35;30.90;66.40
46159;DHT22;31888;44.512;26.104;2022-09-09T07:12:39;30.80;65.10
46159;DHT22;31888;44.512;26.104;2022-09-09T07:14:46;30.40;66.20
46159;DHT22;31888;44.512;26.104;2022-09-09T07:16:50;30.20;67.00
46159;DHT22;31888;44.512;26.104;2022-09-09T07:19:01;30.20;65.90
46159;DHT22;31888;44.512;26.104;2022-09-09T07:21:05;30.50;65.60
46159;DHT22;31888;44.512;26.104;2022-09-09T07:23:11;30.40;65.40
46159;DHT22;31888;44.512;26.104;2022-09-09T07:25:15;30.50;64.90
46159;DHT22;31888;44.512;26.104;2022-09-09T07:27:26;30.70;64.90
46159;DHT22;31888;44.512;26.104;2022-09-09T07:29:31;30.80;64.70
46159;DHT22;31888;44.512;26.104;2022-09-09T07:31:43;31.00;64.40
46159;DHT22;31888;44.512;26.104;2022-09-09T07:33:54;30.60;64.60
46159;DHT22;31888;44.512;26.104;2022-09-09T07:36:04;30.10;65.60
46159;DHT22;31888;44.512;26.104;2022-09-09T07:38:10;29.60;66.40
46159;DHT22;31888;44.512;26.104;2022-09-09T07:40:15;29.50;67.10
46159;DHT22;31888;44.512;26.104;2022-09-09T07:42:23;29.30;67.40
46159;DHT22;31888;44.512;26.104;2022-09-09T07:44:28;28.90;68.40
46159;DHT22;31888;44.512;26.104;2022-09-09T07:46:40;28.90;68.00
46159;DHT22;31888;44.512;26.104;2022-09-09T07:48:47;28.80;68.30
46159;DHT22;31888;44.512;26.104;2022-09-09T07:51:04;29.30;67.80
46159;DHT22;31888;44.512;26.104;2022-09-09T07:53:10;29.30;67.90
46159;DHT22;31888;44.512;26.104;2022-09-09T07:55:17;29.30;68.30
46159;DHT22;31888;44.512;26.104;2022-09-09T07:57:24;29.40;67.90
46159;DHT22;31888;44.512;26.104;2022-09-09T07:59:36;29.70;67.10
46159;DHT22;31888;44.512;26.104;2022-09-09T08:01:42;29.50;66.60
46159;DHT22;31888;44.512;26.104;2022-09-09T08:03:54;29.50;66.80
46159;DHT22;31888;44.512;26.104;2022-09-09T08:06:01;29.50;66.40
46159;DHT22;31888;44.512;26.104;2022-09-09T08:08:06;29.70;66.50
46159;DHT22;31888;44.512;26.104;2022-09-09T08:10:17;29.90;66.20
46159;DHT22;31888;44.512;26.104;2022-09-09T08:12:26;29.80;65.50
46159;DHT22;31888;44.512;26.104;2022-09-09T08:14:31;30.00;66.20
46159;DHT22;31888;44.512;26.104;2022-09-09T08:16:39;30.20;65.90
46159;DHT22;31888;44.512;26.104;2022-09-09T08:18:44;30.50;66.20
46159;DHT22;31888;44.512;26.104;2022-09-09T08:20:48;30.50;65.20
46159;DHT22;31888;44.512;26.104;2022-09-09T08:22:54;30.50;65.70
46159;DHT22;31888;44.512;26.104;2022-09-09T08:25:01;30.50;65.50
46159;DHT22;31888;44.512;26.104;2022-09-09T08:27:12;30.20;65.60
46159;DHT22;31888;44.512;26.104;2022-09-09T08:29:19;30.20;66.20
46159;DHT22;31888;44.512;26.104;2022-09-09T08:31:25;30.10;66.30
46159;DHT22;31888;44.512;26.104;2022-09-09T08:33:31;30.20;66.40
46159;DHT22;31888;44.512;26.104;2022-09-09T08:35:36;30.30;66.20
46159;DHT22;31888;44.512;26.104;2022-09-09T08:37:40;30.50;65.40
46159;DHT22;31888;44.512;26.104;2022-09-09T08:39:45;30.60;64.80
46159;DHT22;31888;44.512;26.104;2022-09-09T08:42:17;30.90;65.50
46159;DHT22;31888;44.512;26.104;2022-09-09T08:44:37;31.10;64.50
46159;DHT22;31888;44.512;26.104;2022-09-09T08:46:56;30.90;64.80
46159;DHT22;31888;44.512;26.104;2022-09-09T08:49:09;30.70;65.60
46159;DHT22;31888;44.512;26.104;2022-09-09T08:51:16;30.50;64.30
46159;DHT22;31888;44.512;26.104;2022-09-09T08:53:23;30.40;64.70
46159;DHT22;31888;44.512;26.104;2022-09-09T08:55:37;30.10;64.00
46159;DHT22;31888;44.512;26.104;2022-09-09T08:57:44;29.90;64.70
46159;DHT22;31888;44.512;26.104;2022-09-09T08:59:51;29.80;65.50
46159;DHT22;31888;44.512;26.104;2022-09-09T09:02:02;29.60;65.50
46159;DHT22;31888;44.512;26.104;2022-09-09T09:04:37;29.90;65.80
46159;DHT22;31888;44.512;26.104;2022-09-09T09:06:50;30.00;65.50
46159;DHT22;31888;44.512;26.104;2022-09-09T09:09:02;30.30;65.00
46159;DHT22;31888;44.512;26.104;2022-09-09T09:11:07;30.00;66.00
46159;DHT22;31888;44.512;26.104;2022-09-09T09:13:14;29.90;66.50
46159;DHT22;31888;44.512;26.104;2022-09-09T09:15:25;29.80;65.80
46159;DHT22;31888;44.512;26.104;2022-09-09T09:17:34;29.50;66.10
46159;DHT22;31888;44.512;26.104;2022-09-09T09:19:43;29.30;67.00
46159;DHT22;31888;44.512;26.104;2022-09-09T09:21:54;29.40;66.80
46159;DHT22;31888;44.512;26.104;2022-09-09T09:24:01;29.60;66.50
46159;DHT22;31888;44.512;26.104;2022-09-09T09:26:10;29.90;65.80
46159;DHT22;31888;44.512;26.104;2022-09-09T09:28:17;30.20;65.10
46159;DHT22;31888;44.512;26.104;2022-09-09T09:30:35;30.20;64.70
46159;DHT22;31888;44.512;26.104;2022-09-09T09:32:51;30.10;64.10
46159;DHT22;31888;44.512;26.104;2022-09-09T09:34:58;29.90;64.70
46159;DHT22;31888;44.512;26.104;2022-09-09T09:37:15;29.90;64.70
46159;DHT22;31888;44.512;26.104;2022-09-09T09:39:25;30.00;64.40
46159;DHT22;31888;44.512;26.104;2022-09-09T09:41:51;30.40;64.80
46159;DHT22;31888;44.512;26.104;2022-09-09T09:43:56;30.60;63.90
46159;DHT22;31888;44.512;26.104;2022-09-09T09:46:05;30.70;63.90
46159;DHT22;31888;44.512;26.104;2022-09-09T09:48:20;30.60;64.80
46159;DHT22;31888;44.512;26.104;2022-09-09T09:50:25;30.50;64.50
46159;DHT22;31888;44.512;26.104;2022-09-09T09:52:31;30.30;65.40
46159;DHT22;31888;44.512;26.104;2022-09-09T09:54:42;30.70;64.40
46159;DHT22;31888;44.512;26.104;2022-09-09T09:56:47;31.00;64.10
46159;DHT22;31888;44.512;26.104;2022-09-09T09:58:52;31.00;63.40
46159;DHT22;31888;44.512;26.104;2022-09-09T10:01:21;30.90;64.10
46159;DHT22;31888;44.512;26.104;2022-09-09T10:03:34;30.80;64.40
46159;DHT22;31888;44.512;26.104;2022-09-09T10:05:46;31.00;64.30
46159;DHT22;31888;44.512;26.104;2022-09-09T10:08:08;30.90;64.30
46159;DHT22;31888;44.512;26.104;2022-09-09T10:10:20;30.80;63.80
46159;DHT22;31888;44.512;26.104;2022-09-09T10:12:35;30.50;63.70
46159;DHT22;31888;44.512;26.104;2022-09-09T10:14:48;30.40;63.70
46159;DHT22;31888;44.512;26.104;2022-09-09T10:17:07;30.40;63.70
46159;DHT22;31888;44.512;26.104;2022-09-09T10:19:16;30.20;64.50
46159;DHT22;31888;44.512;26.104;2022-09-09T10:21:39;30.40;63.80
46159;DHT22;31888;44.512;26.104;2022-09-09T10:23:55;30.70;63.60
46159;DHT22;31888;44.512;26.104;2022-09-09T10:26:13;30.70;63.60
46159;DHT22;31888;44.512;26.104;2022-09-09T10:31:06;30.80;63.80
46159;DHT22;31888;44.512;26.104;2022-09-09T10:33:23;31.00;63.80
46159;DHT22;31888;44.512;26.104;2022-09-09T10:35:37;31.00;63.80
46159;DHT22;31888;44.512;26.104;2022-09-09T10:40:30;31.10;62.50
46159;DHT22;31888;44.512;26.104;2022-09-09T10:42:36;31.10;62.30
46159;DHT22;31888;44.512;26.104;2022-09-09T10:44:58;31.20;63.10
46159;DHT22;31888;44.512;26.104;2022-09-09T10:47:42;31.10;62.70
46159;DHT22;31888;44.512;26.104;2022-09-09T10:50:12;31.40;62.60
46159;DHT22;31888;44.512;26.104;2022-09-09T10:52:29;31.30;62.70
46159;DHT22;31888;44.512;26.104;2022-09-09T10:54:45;31.30;62.50
46159;DHT22;31888;44.512;26.104;2022-09-09T10:56:58;31.30;62.40
46159;DHT22;31888;44.512;26.104;2022-09-09T10:59:07;31.40;61.80
46159;DHT22;31888;44.512;26.104;2022-09-09T11:01:18;31.50;62.00
46159;DHT22;31888;44.512;26.104;2022-09-09T11:03:26;31.50;61.70
46159;DHT22;31888;44.512;26.104;2022-09-09T11:05:39;31.40;61.90
46159;DHT22;31888;44.512;26.104;2022-09-09T11:07:48;31.40;62.00
46159;DHT22;31888;44.512;26.104;2022-09-09T11:10:00;31.50;61.90
46159;DHT22;31888;44.512;26.104;2022-09-09T11:12:10;31.50;61.80
46159;DHT22;31888;44.512;26.104;2022-09-09T11:14:22;31.40;62.50
46159;DHT22;31888;44.512;26.104;2022-09-09T11:16:35;31.30;62.30
46159;DHT22;31888;44.512;26.104;2022-09-09T11:18:46;31.40;61.90
46159;DHT22;31888;44.512;26.104;2022-09-09T11:20:59;31.50;62.20
46159;DHT22;31888;44.512;26.104;2022-09-09T11:23:11;31.50;62.00
46159;DHT22;31888;44.512;26.104;2022-09-09T11:25:19;31.50;62.60
46159;DHT22;31888;44.512;26.104;2022-09-09T11:27:28;31.50;62.50
46159;DHT22;31888;44.512;26.104;2022-09-09T11:34:45;31.50;62.90
46159;DHT22;31888;44.512;26.104;2022-09-09T11:37:20;31.50;62.70
46159;DHT22;31888;44.512;26.104;2022-09-09T11:39:47;31.40;62.80
46159;DHT22;31888;44.512;26.104;2022-09-09T11:42:05;31.50;62.10
46159;DHT22;31888;44.512;26.104;2022-09-09T11:44:11;31.50;62.20
46159;DHT22;31888;44.512;26.104;2022-09-09T11:46:18;31.60;62.00
46159;DHT22;31888;44.512;26.104;2022-09-09T11:48:36;31.70;63.70
46159;DHT22;31888;44.512;26.104;2022-09-09T11:50:41;31.80;62.10
46159;DHT22;31888;44.512;26.104;2022-09-09T11:52:48;32.00;61.50
46159;DHT22;31888;44.512;26.104;2022-09-09T11:54:55;32.10;60.60
46159;DHT22;31888;44.512;26.104;2022-09-09T11:57:02;32.10;61.00
46159;DHT22;31888;44.512;26.104;2022-09-09T11:59:20;32.10;61.10
46159;DHT22;31888;44.512;26.104;2022-09-09T12:01:30;31.90;61.70
46159;DHT22;31888;44.512;26.104;2022-09-09T12:03:41;31.90;62.80
46159;DHT22;31888;44.512;26.104;2022-09-09T12:05:49;32.00;62.70
46159;DHT22;31888;44.512;26.104;2022-09-09T12:07:57;32.10;61.80
46159;DHT22;31888;44.512;26.104;2022-09-09T12:10:04;32.10;62.00
46159;DHT22;31888;44.512;26.104;2022-09-09T12:12:28;32.20;61.90
46159;DHT22;31888;44.512;26.104;2022-09-09T12:14:38;32.10;61.70
46159;DHT22;31888;44.512;26.104;2022-09-09T12:16:44;32.20;61.70
46159;DHT22;31888;44.512;26.104;2022-09-09T12:18:48;32.20;61.70
46159;DHT22;31888;44.512;26.104;2022-09-09T12:21:00;32.20;61.30
46159;DHT22;31888;44.512;26.104;2022-09-09T12:23:22;32.30;61.10
46159;DHT22;31888;44.512;26.104;2022-09-09T12:25:35;32.40;61.60
46159;DHT22;31888;44.512;26.104;2022-09-09T12:27:50;31.80;64.00
46159;DHT22;31888;44.512;26.104;2022-09-09T12:30:03;31.60;64.20
46159;DHT22;31888;44.512;26.104;2022-09-09T12:32:22;31.70;65.20
46159;DHT22;31888;44.512;26.104;2022-09-09T12:34:36;31.70;65.50
46159;DHT22;31888;44.512;26.104;2022-09-09T12:36:47;31.80;65.10
46159;DHT22;31888;44.512;26.104;2022-09-09T12:39:15;31.70;65.00
46159;DHT22;31888;44.512;26.104;2022-09-09T12:41:22;31.60;65.00
46159;DHT22;31888;44.512;26.104;2022-09-09T12:43:28;31.50;65.00
46159;DHT22;31888;44.512;26.104;2022-09-09T12:45:33;31.20;64.00
46159;DHT22;31888;44.512;26.104;2022-09-09T12:47:41;31.00;65.10
46159;DHT22;31888;44.512;26.104;2022-09-09T12:49:50;31.00;65.70
46159;DHT22;31888;44.512;26.104;2022-09-09T12:51:55;31.10;65.50
46159;DHT22;31888;44.512;26.104;2022-09-09T12:54:03;31.10;65.50
46159;DHT22;31888;44.512;26.104;2022-09-09T12:56:19;31.10;66.20
46159;DHT22;31888;44.512;26.104;2022-09-09T12:58:25;31.00;68.00
46159;DHT22;31888;44.512;26.104;2022-09-09T13:00:32;31.00;67.70
46159;DHT22;31888;44.512;26.104;2022-09-09T13:02:48;31.10;68.20
46159;DHT22;31888;44.512;26.104;2022-09-09T13:05:08;31.20;66.40
46159;DHT22;31888;44.512;26.104;2022-09-09T13:07:18;31.30;67.40
46159;DHT22;31888;44.512;26.104;2022-09-09T13:09:25;31.30;67.90
46159;DHT22;31888;44.512;26.104;2022-09-09T13:11:34;31.40;67.70
46159;DHT22;31888;44.512;26.104;2022-09-09T13:13:43;31.50;68.30
46159;DHT22;31888;44.512;26.104;2022-09-09T13:15:56;31.50;68.00
46159;DHT22;31888;44.512;26.104;2022-09-09T13:18:05;31.60;66.20
46159;DHT22;31888;44.512;26.104;2022-09-09T13:20:17;31.70;66.60
46159;DHT22;31888;44.512;26.104;2022-09-09T13:22:50;31.60;65.00
46159;DHT22;31888;44.512;26.104;2022-09-09T13:25:52;31.30;65.90
46159;DHT22;31888;44.512;26.104;2022-09-09T13:28:41;31.20;65.90
46159;DHT22;31888;44.512;26.104;2022-09-09T13:30:58;31.10;67.00
46159;DHT22;31888;44.512;26.104;2022-09-09T13:33:21;31.00;67.40
46159;DHT22;31888;44.512;26.104;2022-09-09T13:35:28;30.90;69.00
46159;DHT22;31888;44.512;26.104;2022-09-09T13:37:34;30.90;67.90
46159;DHT22;31888;44.512;26.104;2022-09-09T13:39:51;30.90;69.30
46159;DHT22;31888;44.512;26.104;2022-09-09T13:41:58;30.80;69.80